Terminal Aerodrome Forecast
Issued by NWS

Home | Current Version | Previous Version | Text Only | Print | Product List | Glossary On
Versions: 1 2 3 4 5 6 7 8 9 10 11 12 13 14
000
FTPQ31 PGUM 291121
TAFGUM
TAF

TAF
PGSN 291121Z 2912/3012 05016G23KT P6SM -RA VCSH SCT012 SCT020
      BKN050
      TEMPO 2912/2916 -SHRA SCT010 BKN027 OVC100=

USA.gov is the U.S. government's official web portal to all federal, state and local government web resources and services.